Time,TemperatureF,DewpointF,PressureIn,WindDirection,WindDirectionDegrees,WindSpeedMPH,WindSpeedGustMPH,Humidity,HourlyPrecipIn,Conditions,Clouds,dailyrainin,SoftwareType,DateUTC
2015-08-02 00:02:00,66.0,51.8,29.73,NNW,340,0.0,2.0,60,0.00,,,0.00,meteobridge,2015-08-02 06:02:00,
2015-08-02 00:07:00,66.0,51.3,29.73,NNW,339,2.0,3.0,59,0.00,,,0.00,meteobridge,2015-08-02 06:07:00,
2015-08-02 00:12:00,66.4,51.6,29.73,NNW,340,0.0,3.0,59,0.00,,,0.00,meteobridge,2015-08-02 06:12:00,
2015-08-02 00:17:00,66.6,52.2,29.72,NNW,340,0.0,0.0,60,0.00,,,0.00,meteobridge,2015-08-02 06:17:00,
2015-08-02 00:23:00,66.6,53.1,29.72,NW,325,0.0,2.0,62,0.00,,,0.00,meteobridge,2015-08-02 06:23:00,
2015-08-02 00:28:00,66.4,52.5,29.72,WNW,301,0.0,1.0,61,0.00,,,0.00,meteobridge,2015-08-02 06:28:00,
2015-08-02 00:33:00,66.4,52.9,29.72,North,1,2.0,4.0,62,0.00,,,0.00,meteobridge,2015-08-02 06:33:00,
2015-08-02 00:38:00,66.6,52.7,29.72,North,350,0.9,2.0,61,0.00,,,0.00,meteobridge,2015-08-02 06:38:00,
2015-08-02 00:43:00,66.9,52.5,29.72,North,0,0.0,6.0,60,0.00,,,0.00,meteobridge,2015-08-02 06:43:00,
2015-08-02 00:48:00,67.6,53.2,29.72,NNW,346,2.0,3.0,60,0.00,,,0.00,meteobridge,2015-08-02 06:48:00,
2015-08-02 00:53:00,67.8,52.9,29.72,NNW,344,2.0,3.0,59,0.00,,,0.00,meteobridge,2015-08-02 06:53:00,
2015-08-02 00:58:00,68.4,53.4,29.71,North,350,0.0,0.0,59,0.00,,,0.00,meteobridge,2015-08-02 06:58:00,
2015-08-02 01:03:00,68.4,53.4,29.71,North,3,2.9,4.0,59,0.00,,,0.00,meteobridge,2015-08-02 07:03:00,
2015-08-02 01:08:00,68.4,53.4,29.71,North,1,2.0,2.0,59,0.00,,,0.00,meteobridge,2015-08-02 07:08:00,
2015-08-02 01:14:00,68.4,54.0,29.71,North,1,0.0,0.0,60,0.00,,,0.00,meteobridge,2015-08-02 07:14:00,
2015-08-02 01:19:00,68.4,54.0,29.71,North,0,2.0,3.0,60,0.00,,,0.00,meteobridge,2015-08-02 07:19:00,
2015-08-02 01:24:00,68.2,53.8,29.71,North,0,2.9,5.0,60,0.00,,,0.00,meteobridge,2015-08-02 07:24:00,
2015-08-02 01:29:00,68.4,53.4,29.71,NW,305,0.9,6.0,59,0.00,,,0.00,meteobridge,2015-08-02 07:29:00,
2015-08-02 01:34:00,68.5,53.2,29.71,North,1,2.9,7.0,58,0.00,,,0.00,meteobridge,2015-08-02 07:34:00,
2015-08-02 01:39:00,68.9,53.6,29.71,North,353,6.0,7.0,58,0.00,,,0.00,meteobridge,2015-08-02 07:39:00,
2015-08-02 01:44:00,69.1,53.6,29.70,North,1,6.0,8.0,58,0.00,,,0.00,meteobridge,2015-08-02 07:44:00,
2015-08-02 01:49:00,69.1,53.6,29.70,North,1,6.0,6.0,58,0.00,,,0.00,meteobridge,2015-08-02 07:49:00,
2015-08-02 01:54:00,69.1,54.1,29.70,North,0,2.0,6.0,59,0.00,,,0.00,meteobridge,2015-08-02 07:54:00,
2015-08-02 01:59:00,69.1,54.1,29.70,North,3,2.0,5.0,59,0.00,,,0.00,meteobridge,2015-08-02 07:59:00,
2015-08-02 02:04:00,68.9,54.0,29.70,North,0,2.9,6.0,59,0.00,,,0.00,meteobridge,2015-08-02 08:04:00,
2015-08-02 02:09:00,68.7,54.3,29.70,North,0,6.0,7.0,60,0.00,,,0.00,meteobridge,2015-08-02 08:09:00,
2015-08-02 02:14:00,68.5,54.1,29.69,North,350,2.0,6.0,60,0.00,,,0.00,meteobridge,2015-08-02 08:14:00,
2015-08-02 02:19:00,68.4,54.0,29.69,North,0,2.0,6.0,60,0.00,,,0.00,meteobridge,2015-08-02 08:19:00,
2015-08-02 02:24:00,68.4,53.4,29.69,NNW,346,2.9,5.0,59,0.00,,,0.00,meteobridge,2015-08-02 08:24:00,
2015-08-02 02:30:00,68.4,53.4,29.69,NNW,342,4.9,6.0,59,0.00,,,0.00,meteobridge,2015-08-02 08:30:00,
2015-08-02 02:35:00,67.8,52.9,29.69,North,352,2.0,3.0,59,0.00,,,0.00,meteobridge,2015-08-02 08:35:00,
2015-08-02 02:40:00,67.8,52.9,29.69,NW,320,0.0,2.0,59,0.00,,,0.00,meteobridge,2015-08-02 08:40:00,
2015-08-02 02:45:00,67.6,53.8,29.69,NNW,340,2.9,5.0,61,0.00,,,0.00,meteobridge,2015-08-02 08:45:00,
2015-08-02 02:50:00,67.5,54.0,29.69,North,356,2.0,3.0,62,0.00,,,0.00,meteobridge,2015-08-02 08:50:00,
2015-08-02 02:55:00,67.3,53.8,29.69,North,359,0.0,0.0,62,0.00,,,0.00,meteobridge,2015-08-02 08:55:00,
2015-08-02 03:00:00,67.1,54.1,29.70,North,0,0.0,0.0,63,0.00,,,0.00,meteobridge,2015-08-02 09:00:00,
2015-08-02 03:05:00,66.9,54.3,29.70,North,359,0.0,0.0,64,0.00,,,0.00,meteobridge,2015-08-02 09:05:00,
2015-08-02 03:10:00,66.4,54.3,29.70,North,0,0.0,0.0,65,0.00,,,0.00,meteobridge,2015-08-02 09:10:00,
2015-08-02 03:15:00,66.0,54.0,29.71,NW,319,2.0,3.0,65,0.00,,,0.00,meteobridge,2015-08-02 09:15:00,
2015-08-02 03:20:00,65.3,53.6,29.71,NW,318,0.0,0.0,66,0.00,,,0.00,meteobridge,2015-08-02 09:20:00,
2015-08-02 03:26:00,64.8,53.6,29.71,NW,318,0.0,0.0,67,0.00,,,0.00,meteobridge,2015-08-02 09:26:00,
2015-08-02 03:31:00,64.6,53.8,29.71,NW,318,0.0,0.0,68,0.00,,,0.00,meteobridge,2015-08-02 09:31:00,
2015-08-02 03:36:00,64.2,53.4,29.71,NW,318,0.0,0.0,68,0.00,,,0.00,meteobridge,2015-08-02 09:36:00,
2015-08-02 03:41:00,63.9,53.4,29.71,NW,318,0.0,0.0,69,0.00,,,0.00,meteobridge,2015-08-02 09:41:00,
2015-08-02 03:46:00,63.7,53.2,29.72,NW,318,0.0,0.0,69,0.00,,,0.00,meteobridge,2015-08-02 09:46:00,
2015-08-02 03:52:00,63.3,53.4,29.72,NW,318,0.0,0.0,70,0.00,,,0.00,meteobridge,2015-08-02 09:52:00,
2015-08-02 03:57:00,63.1,53.6,29.72,NW,318,0.0,0.0,71,0.00,,,0.00,meteobridge,2015-08-02 09:57:00,
2015-08-02 04:02:00,62.8,53.6,29.72,NW,318,0.0,1.0,72,0.00,,,0.00,meteobridge,2015-08-02 10:02:00,
2015-08-02 04:07:00,62.4,53.2,29.72,NW,318,0.0,0.0,72,0.00,,,0.00,meteobridge,2015-08-02 10:07:00,
2015-08-02 04:13:00,62.2,53.1,29.72,NW,318,0.0,0.0,72,0.00,,,0.00,meteobridge,2015-08-02 10:13:00,
2015-08-02 04:18:00,62.1,53.2,29.73,NW,318,0.0,0.0,73,0.00,,,0.00,meteobridge,2015-08-02 10:18:00,
2015-08-02 04:23:00,62.1,53.2,29.73,NW,318,0.0,0.0,73,0.00,,,0.00,meteobridge,2015-08-02 10:23:00,
2015-08-02 04:28:00,61.9,53.1,29.73,NW,318,0.0,0.0,73,0.00,,,0.00,meteobridge,2015-08-02 10:28:00,
2015-08-02 04:34:00,61.5,53.2,29.73,NW,318,0.0,0.0,74,0.00,,,0.00,meteobridge,2015-08-02 10:34:00,
2015-08-02 04:39:00,61.5,53.6,29.73,NW,318,0.0,0.0,75,0.00,,,0.00,meteobridge,2015-08-02 10:39:00,
2015-08-02 04:44:00,61.3,53.1,29.74,NW,318,0.0,0.0,74,0.00,,,0.00,meteobridge,2015-08-02 10:44:00,
2015-08-02 04:49:00,61.2,53.2,29.74,NW,318,0.0,0.0,75,0.00,,,0.00,meteobridge,2015-08-02 10:49:00,
2015-08-02 04:54:00,61.0,53.4,29.74,NW,318,0.0,0.0,76,0.00,,,0.00,meteobridge,2015-08-02 10:54:00,
2015-08-02 05:00:00,61.0,53.8,29.74,NW,318,0.0,0.0,77,0.00,,,0.00,meteobridge,2015-08-02 11:00:00,
2015-08-02 05:05:00,61.0,53.4,29.74,NW,318,0.0,0.0,76,0.00,,,0.00,meteobridge,2015-08-02 11:05:00,
2015-08-02 05:10:00,61.0,53.8,29.74,NW,318,0.0,0.0,77,0.00,,,0.00,meteobridge,2015-08-02 11:10:00,
2015-08-02 05:15:00,60.6,53.4,29.72,NW,318,0.0,0.0,77,0.00,,,0.00,meteobridge,2015-08-02 11:15:00,
2015-08-02 05:20:00,60.4,53.2,29.72,NW,318,0.0,0.0,77,0.00,,,0.00,meteobridge,2015-08-02 11:20:00,
2015-08-02 05:25:00,60.4,53.6,29.72,NW,318,0.0,0.0,78,0.00,,,0.00,meteobridge,2015-08-02 11:25:00,
2015-08-02 05:31:00,60.4,53.2,29.73,NW,318,0.0,0.0,77,0.00,,,0.00,meteobridge,2015-08-02 11:31:00,
2015-08-02 05:36:00,60.4,53.2,29.73,NW,318,0.0,0.0,77,0.00,,,0.00,meteobridge,2015-08-02 11:36:00,
2015-08-02 05:41:00,60.3,53.4,29.73,NW,318,0.0,0.0,78,0.00,,,0.00,meteobridge,2015-08-02 11:41:00,
2015-08-02 05:46:00,60.1,52.9,29.74,NW,318,0.0,0.0,77,0.00,,,0.00,meteobridge,2015-08-02 11:46:00,
2015-08-02 05:51:00,59.9,52.7,29.74,NW,318,0.0,0.0,77,0.00,,,0.00,meteobridge,2015-08-02 11:51:00,
2015-08-02 05:56:00,59.7,52.2,29.74,NW,318,0.0,0.0,76,0.00,,,0.00,meteobridge,2015-08-02 11:56:00,
2015-08-02 06:02:00,59.5,52.3,29.74,NW,318,0.0,0.0,77,0.00,,,0.00,meteobridge,2015-08-02 12:02:00,
2015-08-02 06:07:00,59.5,52.7,29.74,NW,318,0.0,0.0,78,0.00,,,0.00,meteobridge,2015-08-02 12:07:00,
2015-08-02 06:12:00,59.4,51.8,29.74,NW,318,0.0,0.0,76,0.00,,,0.00,meteobridge,2015-08-02 12:12:00,
2015-08-02 06:17:00,59.2,51.3,29.75,NW,318,0.0,0.0,75,0.00,,,0.00,meteobridge,2015-08-02 12:17:00,
2015-08-02 06:23:00,59.2,51.6,29.75,NW,318,0.0,0.0,76,0.00,,,0.00,meteobridge,2015-08-02 12:23:00,
2015-08-02 06:28:00,59.0,51.8,29.75,NW,318,0.0,0.0,77,0.00,,,0.00,meteobridge,2015-08-02 12:28:00,
2015-08-02 06:33:00,59.2,52.3,29.76,North,352,0.0,0.0,78,0.00,,,0.00,meteobridge,2015-08-02 12:33:00,
2015-08-02 06:38:00,59.0,51.8,29.76,North,0,0.0,0.0,77,0.00,,,0.00,meteobridge,2015-08-02 12:38:00,
2015-08-02 06:43:00,58.8,52.0,29.76,SW,215,0.0,0.0,78,0.00,,,0.00,meteobridge,2015-08-02 12:43:00,
2015-08-02 06:48:00,58.8,52.0,29.76,SW,215,0.0,0.0,78,0.00,,,0.00,meteobridge,2015-08-02 12:48:00,
2015-08-02 06:54:00,58.8,52.3,29.76,SW,215,0.0,0.0,79,0.00,,,0.00,meteobridge,2015-08-02 12:54:00,
2015-08-02 06:59:00,59.0,52.9,29.75,SW,215,0.0,0.0,80,0.00,,,0.00,meteobridge,2015-08-02 12:59:00,
2015-08-02 07:04:00,59.0,51.8,29.75,SW,215,0.0,0.0,77,0.00,,,0.00,meteobridge,2015-08-02 13:04:00,
2015-08-02 07:09:00,59.0,51.8,29.75,SW,215,0.0,0.0,77,0.00,,,0.00,meteobridge,2015-08-02 13:09:00,
2015-08-02 07:14:00,59.2,53.1,29.78,SW,215,0.0,0.0,80,0.00,,,0.00,meteobridge,2015-08-02 13:14:00,
2015-08-02 07:20:00,59.4,52.9,29.78,SW,215,0.0,0.0,79,0.00,,,0.00,meteobridge,2015-08-02 13:20:00,
2015-08-02 07:25:00,59.5,52.7,29.78,SW,215,0.0,0.0,78,0.00,,,0.00,meteobridge,2015-08-02 13:25:00,
2015-08-02 07:30:00,59.9,53.1,29.78,SW,215,0.0,0.0,78,0.00,,,0.00,meteobridge,2015-08-02 13:30:00,
2015-08-02 07:36:00,60.4,52.9,29.78,SW,215,0.0,1.0,76,0.00,,,0.00,meteobridge,2015-08-02 13:36:00,
2015-08-02 07:41:00,61.0,53.4,29.78,SW,215,0.0,1.0,76,0.00,,,0.00,meteobridge,2015-08-02 13:41:00,
2015-08-02 07:46:00,61.9,52.3,29.77,SW,216,0.0,1.0,71,0.00,,,0.00,meteobridge,2015-08-02 13:46:00,
2015-08-02 07:51:00,62.8,51.3,29.77,SW,216,0.0,1.0,66,0.00,,,0.00,meteobridge,2015-08-02 13:51:00,
2015-08-02 07:56:00,63.7,50.9,29.77,SW,216,0.0,0.0,63,0.00,,,0.00,meteobridge,2015-08-02 13:56:00,
2015-08-02 08:07:00,65.1,48.6,29.77,WSW,243,0.0,0.0,55,0.00,,,0.00,meteobridge,2015-08-02 14:07:00,
2015-08-02 08:12:00,66.0,49.5,29.77,WSW,251,0.0,0.0,55,0.00,,,0.00,meteobridge,2015-08-02 14:12:00,
2015-08-02 08:17:00,66.9,49.8,29.79,WSW,251,0.0,1.0,54,0.00,,,0.00,meteobridge,2015-08-02 14:17:00,
2015-08-02 08:22:00,67.8,50.0,29.79,WSW,253,0.9,2.0,53,0.00,,,0.00,meteobridge,2015-08-02 14:22:00,
2015-08-02 08:28:00,68.4,51.6,29.79,WSW,253,0.0,0.0,55,0.00,,,0.00,meteobridge,2015-08-02 14:28:00,
2015-08-02 08:33:00,69.3,51.4,29.77,WSW,253,0.0,0.0,53,0.00,,,0.00,meteobridge,2015-08-02 14:33:00,
2015-08-02 08:38:00,70.0,50.5,29.77,WSW,253,0.0,0.0,50,0.00,,,0.00,meteobridge,2015-08-02 14:38:00,
2015-08-02 08:43:00,70.5,52.5,29.77,SSE,164,2.9,3.0,53,0.00,,,0.00,meteobridge,2015-08-02 14:43:00,
2015-08-02 08:48:00,70.9,52.9,29.77,SE,127,4.0,5.0,53,0.00,,,0.00,meteobridge,2015-08-02 14:48:00,
2015-08-02 08:54:00,71.2,53.8,29.77,SE,128,2.0,5.0,54,0.00,,,0.00,meteobridge,2015-08-02 14:54:00,
2015-08-02 08:59:00,71.8,53.8,29.76,ESE,112,2.0,5.0,53,0.00,,,0.00,meteobridge,2015-08-02 14:59:00,
2015-08-02 09:04:00,72.3,53.2,29.76,ESE,117,2.0,3.0,51,0.00,,,0.00,meteobridge,2015-08-02 15:04:00,
2015-08-02 09:09:00,72.9,54.7,29.76,ESE,123,4.0,4.0,53,0.00,,,0.00,meteobridge,2015-08-02 15:09:00,
2015-08-02 09:14:00,73.2,53.4,29.76,SE,126,2.0,5.0,50,0.00,,,0.00,meteobridge,2015-08-02 15:14:00,
2015-08-02 09:19:00,73.9,54.1,29.76,SE,127,2.9,5.0,50,0.00,,,0.00,meteobridge,2015-08-02 15:19:00,
2015-08-02 09:24:00,74.5,52.3,29.76,SE,127,0.9,2.0,46,0.00,,,0.00,meteobridge,2015-08-02 15:24:00,
2015-08-02 09:29:00,74.8,52.2,29.76,SE,128,0.0,4.0,45,0.00,,,0.00,meteobridge,2015-08-02 15:29:00,
2015-08-02 09:34:00,75.4,52.0,29.76,SE,128,2.0,3.0,44,0.00,,,0.00,meteobridge,2015-08-02 15:34:00,
2015-08-02 09:40:00,75.7,52.9,29.76,SE,128,2.0,3.0,45,0.00,,,0.00,meteobridge,2015-08-02 15:40:00,
2015-08-02 09:45:00,76.5,54.7,29.75,SE,137,0.9,5.0,47,0.00,,,0.00,meteobridge,2015-08-02 15:45:00,
2015-08-02 09:50:00,77.0,52.9,29.75,SE,137,0.0,0.0,43,0.00,,,0.00,meteobridge,2015-08-02 15:50:00,
2015-08-02 09:55:00,77.5,53.2,29.75,SE,126,0.9,5.0,43,0.00,,,0.00,meteobridge,2015-08-02 15:55:00,
2015-08-02 10:01:00,78.1,51.8,29.73,SE,133,0.0,0.0,40,0.00,,,0.00,meteobridge,2015-08-02 16:01:00,
2015-08-02 10:06:00,78.6,53.6,29.73,SSE,164,2.9,6.0,42,0.00,,,0.00,meteobridge,2015-08-02 16:06:00,
2015-08-02 10:11:00,79.2,54.1,29.73,SE,128,2.0,5.0,42,0.00,,,0.00,meteobridge,2015-08-02 16:11:00,
2015-08-02 10:16:00,79.9,52.7,29.74,SE,128,0.9,1.0,39,0.00,,,0.00,meteobridge,2015-08-02 16:16:00,
2015-08-02 10:21:00,80.2,54.3,29.74,SE,128,0.0,1.0,41,0.00,,,0.00,meteobridge,2015-08-02 16:21:00,
2015-08-02 10:27:00,80.8,54.9,29.74,SE,128,4.9,5.0,41,0.00,,,0.00,meteobridge,2015-08-02 16:27:00,
2015-08-02 10:32:00,81.1,53.8,29.73,SSE,147,2.9,4.0,39,0.00,,,0.00,meteobridge,2015-08-02 16:32:00,
2015-08-02 10:37:00,81.9,53.1,29.73,SE,134,2.9,6.0,37,0.00,,,0.00,meteobridge,2015-08-02 16:37:00,
2015-08-02 10:42:00,82.4,55.0,29.73,SSE,152,2.9,6.0,39,0.00,,,0.00,meteobridge,2015-08-02 16:42:00,
2015-08-02 10:47:00,82.9,55.4,29.73,SSE,148,6.0,7.0,39,0.00,,,0.00,meteobridge,2015-08-02 16:47:00,
2015-08-02 10:52:00,83.7,51.4,29.73,ESE,119,2.0,3.0,33,0.00,,,0.00,meteobridge,2015-08-02 16:52:00,
2015-08-02 10:57:00,84.0,53.4,29.73,ESE,106,2.9,6.0,35,0.00,,,0.00,meteobridge,2015-08-02 16:57:00,
2015-08-02 11:02:00,84.0,52.7,29.72,ESE,106,0.0,2.0,34,0.00,,,0.00,meteobridge,2015-08-02 17:02:00,
2015-08-02 11:07:00,84.4,50.4,29.72,SE,141,0.9,6.0,31,0.00,,,0.00,meteobridge,2015-08-02 17:07:00,
2015-08-02 11:13:00,84.6,54.0,29.72,SE,141,0.0,3.0,35,0.00,,,0.00,meteobridge,2015-08-02 17:13:00,
2015-08-02 11:18:00,84.9,51.8,29.73,SE,130,0.9,1.0,32,0.00,,,0.00,meteobridge,2015-08-02 17:18:00,
2015-08-02 11:23:00,84.9,48.2,29.73,SE,130,0.9,1.0,28,0.00,,,0.00,meteobridge,2015-08-02 17:23:00,
2015-08-02 11:28:00,85.5,53.1,29.73,ESE,116,2.9,6.0,33,0.00,,,0.00,meteobridge,2015-08-02 17:28:00,
2015-08-02 11:33:00,85.8,51.6,29.72,ESE,116,0.9,5.0,31,0.00,,,0.00,meteobridge,2015-08-02 17:33:00,
2015-08-02 11:38:00,86.4,53.1,29.72,ESE,116,0.9,1.0,32,0.00,,,0.00,meteobridge,2015-08-02 17:38:00,
2015-08-02 11:43:00,86.5,53.2,29.72,SSE,147,2.9,5.0,32,0.00,,,0.00,meteobridge,2015-08-02 17:43:00,
2015-08-02 11:48:00,86.7,54.1,29.72,ESE,112,0.9,5.0,33,0.00,,,0.00,meteobridge,2015-08-02 17:48:00,
2015-08-02 11:53:00,87.1,52.7,29.72,SE,140,0.9,5.0,31,0.00,,,0.00,meteobridge,2015-08-02 17:53:00,
2015-08-02 11:58:00,87.6,54.1,29.71,SE,141,8.1,10.0,32,0.00,,,0.00,meteobridge,2015-08-02 17:58:00,
2015-08-02 12:04:00,87.8,53.4,29.71,SSE,160,0.0,6.0,31,0.00,,,0.00,meteobridge,2015-08-02 18:04:00,
2015-08-02 12:09:00,87.8,52.5,29.71,SSE,152,0.9,5.0,30,0.00,,,0.00,meteobridge,2015-08-02 18:09:00,
2015-08-02 12:14:00,88.0,50.7,29.70,East,88,0.0,5.0,28,0.00,,,0.00,meteobridge,2015-08-02 18:14:00,
2015-08-02 12:19:00,88.0,50.7,29.70,NE,48,0.0,2.0,28,0.00,,,0.00,meteobridge,2015-08-02 18:19:00,
2015-08-02 12:24:00,87.6,50.5,29.70,ENE,78,0.0,6.0,28,0.00,,,0.00,meteobridge,2015-08-02 18:24:00,
2015-08-02 12:29:00,87.4,48.4,29.70,East,82,0.0,1.0,26,0.00,,,0.00,meteobridge,2015-08-02 18:29:00,
2015-08-02 12:34:00,87.8,49.6,29.70,SE,140,0.0,1.0,27,0.00,,,0.00,meteobridge,2015-08-02 18:34:00,
2015-08-02 12:39:00,88.2,54.5,29.70,East,92,2.9,5.0,32,0.00,,,0.00,meteobridge,2015-08-02 18:39:00,
2015-08-02 12:44:00,88.9,52.5,29.69,SE,130,6.9,7.0,29,0.00,,,0.00,meteobridge,2015-08-02 18:44:00,
2015-08-02 12:49:00,89.4,52.0,29.69,ESE,121,4.9,8.0,28,0.00,,,0.00,meteobridge,2015-08-02 18:49:00,
2015-08-02 12:54:00,90.0,48.4,29.69,ESE,109,0.0,0.0,24,0.00,,,0.00,meteobridge,2015-08-02 18:54:00,
2015-08-02 12:59:00,90.5,50.9,29.68,SE,136,0.0,9.0,26,0.00,,,0.00,meteobridge,2015-08-02 18:59:00,
2015-08-02 13:04:00,91.0,52.3,29.68,SSW,206,4.0,7.0,27,0.00,,,0.00,meteobridge,2015-08-02 19:04:00,
2015-08-02 13:10:00,91.6,50.7,29.68,South,174,0.9,7.0,25,0.00,,,0.00,meteobridge,2015-08-02 19:10:00,
2015-08-02 13:15:00,92.1,50.2,29.67,South,188,6.9,7.0,24,0.00,,,0.00,meteobridge,2015-08-02 19:15:00,
2015-08-02 13:20:00,92.5,50.4,29.67,West,277,4.0,8.0,24,0.00,,,0.00,meteobridge,2015-08-02 19:20:00,
2015-08-02 13:25:00,92.8,51.8,29.67,SE,140,2.9,8.0,25,0.00,,,0.00,meteobridge,2015-08-02 19:25:00,
2015-08-02 13:30:00,92.8,50.7,29.67,ESE,110,4.9,11.0,24,0.00,,,0.00,meteobridge,2015-08-02 19:30:00,
2015-08-02 13:35:00,92.8,49.6,29.67,South,178,6.9,8.0,23,0.00,,,0.00,meteobridge,2015-08-02 19:35:00,
2015-08-02 13:40:00,93.2,51.1,29.67,South,184,4.0,8.0,24,0.00,,,0.00,meteobridge,2015-08-02 19:40:00,
2015-08-02 13:45:00,92.8,49.6,29.66,South,179,0.0,6.0,23,0.00,,,0.00,meteobridge,2015-08-02 19:45:00,
2015-08-02 13:50:00,93.2,49.8,29.66,South,175,6.0,7.0,23,0.00,,,0.00,meteobridge,2015-08-02 19:50:00,
2015-08-02 13:55:00,93.2,55.2,29.66,South,186,0.0,2.0,28,0.00,,,0.00,meteobridge,2015-08-02 19:55:00,
2015-08-02 14:00:00,92.8,51.8,29.67,SW,224,0.0,1.0,25,0.00,,,0.00,meteobridge,2015-08-02 20:00:00,
2015-08-02 14:05:00,92.7,50.5,29.67,SW,224,0.0,1.0,24,0.00,,,0.00,meteobridge,2015-08-02 20:05:00,
2015-08-02 14:10:00,92.5,50.4,29.67,North,359,2.0,4.0,24,0.00,,,0.00,meteobridge,2015-08-02 20:10:00,
2015-08-02 14:15:00,90.7,52.2,29.69,North,0,10.1,13.0,27,0.00,,,0.00,meteobridge,2015-08-02 20:15:00,
2015-08-02 14:20:00,89.1,50.7,29.69,North,1,4.0,11.0,27,0.00,,,0.00,meteobridge,2015-08-02 20:20:00,
2015-08-02 14:25:00,88.0,50.7,29.69,North,4,6.0,10.0,28,0.00,,,0.00,meteobridge,2015-08-02 20:25:00,
2015-08-02 14:30:00,87.6,52.3,29.70,NNE,25,2.0,8.0,30,0.00,,,0.00,meteobridge,2015-08-02 20:30:00,
2015-08-02 14:35:00,87.4,51.3,29.70,NNE,23,6.9,11.0,29,0.00,,,0.00,meteobridge,2015-08-02 20:35:00,
2015-08-02 14:41:00,87.3,52.9,29.70,North,0,10.1,12.0,31,0.00,,,0.00,meteobridge,2015-08-02 20:41:00,
2015-08-02 14:46:00,87.3,54.7,29.69,North,6,13.0,13.0,33,0.00,,,0.00,meteobridge,2015-08-02 20:46:00,
2015-08-02 14:51:00,87.1,50.0,29.69,NNE,23,11.0,16.0,28,0.00,,,0.00,meteobridge,2015-08-02 20:51:00,
2015-08-02 14:56:00,87.1,50.9,29.69,North,350,0.9,6.0,29,0.00,,,0.00,meteobridge,2015-08-02 20:56:00,
2015-08-02 15:01:00,87.3,50.2,29.70,North,0,4.9,7.0,28,0.00,,,0.00,meteobridge,2015-08-02 21:01:00,
2015-08-02 15:06:00,87.3,50.2,29.70,North,7,2.0,6.0,28,0.00,,,0.00,meteobridge,2015-08-02 21:06:00,
2015-08-02 15:11:00,87.3,49.3,29.70,North,3,4.9,6.0,27,0.00,,,0.00,meteobridge,2015-08-02 21:11:00,
2015-08-02 15:16:00,87.4,47.3,29.71,North,6,0.0,6.0,25,0.00,,,0.00,meteobridge,2015-08-02 21:16:00,
2015-08-02 15:21:00,87.8,50.7,29.71,SSW,209,8.1,13.0,28,0.00,,,0.00,meteobridge,2015-08-02 21:21:00,
2015-08-02 15:26:00,87.6,48.6,29.71,West,274,4.0,8.0,26,0.00,,,0.00,meteobridge,2015-08-02 21:26:00,
2015-08-02 15:31:00,87.4,48.4,29.72,NW,306,0.0,5.0,26,0.00,,,0.00,meteobridge,2015-08-02 21:31:00,
2015-08-02 15:36:00,87.4,47.3,29.72,SSE,151,6.0,17.0,25,0.00,,,0.00,meteobridge,2015-08-02 21:36:00,
2015-08-02 15:41:00,87.4,48.4,29.72,SE,131,12.1,15.0,26,0.00,,,0.00,meteobridge,2015-08-02 21:41:00,
2015-08-02 15:46:00,87.3,50.2,29.73,SSE,147,10.1,11.0,28,0.00,,,0.00,meteobridge,2015-08-02 21:46:00,
2015-08-02 15:51:00,86.7,48.7,29.73,ESE,119,4.0,11.0,27,0.00,,,0.00,meteobridge,2015-08-02 21:51:00,
2015-08-02 15:56:00,85.8,48.0,29.73,ESE,109,4.9,6.0,27,0.00,,,0.00,meteobridge,2015-08-02 21:56:00,